sensor_id;sensor_type;location;lat;lon;timestamp;pressure;altitude;pressure_sealevel;temperature;humidity
59825;BME280;45703;50.898;6.054;2023-05-24T00:00:43;100957.13;;;9.55;73.95
59825;BME280;45703;50.898;6.054;2023-05-24T00:03:09;100956.09;;;9.56;73.42
59825;BME280;45703;50.898;6.054;2023-05-24T00:05:34;100951.97;;;9.54;73.19
59825;BME280;45703;50.898;6.054;2023-05-24T00:08:05;100961.19;;;9.51;74.55
59825;BME280;45703;50.898;6.054;2023-05-24T00:10:30;100972.25;;;9.48;73.25
59825;BME280;45703;50.898;6.054;2023-05-24T00:12:56;100961.59;;;9.48;73.54
59825;BME280;45703;50.898;6.054;2023-05-24T00:15:21;100972.66;;;9.45;73.26
59825;BME280;45703;50.898;6.054;2023-05-24T00:17:46;100969.09;;;9.38;74.24
59825;BME280;45703;50.898;6.054;2023-05-24T00:20:12;100961.50;;;9.35;73.93
59825;BME280;45703;50.898;6.054;2023-05-24T00:22:38;100968.47;;;9.36;73.77
59825;BME280;45703;50.898;6.054;2023-05-24T00:25:04;100969.69;;;9.34;73.95
59825;BME280;45703;50.898;6.054;2023-05-24T00:27:30;100954.66;;;9.26;73.75
59825;BME280;45703;50.898;6.054;2023-05-24T00:29:56;100972.13;;;9.29;73.75
59825;BME280;45703;50.898;6.054;2023-05-24T00:32:21;100970.41;;;9.21;75.16
59825;BME280;45703;50.898;6.054;2023-05-24T00:34:47;100964.03;;;9.16;74.02
59825;BME280;45703;50.898;6.054;2023-05-24T00:37:12;100965.88;;;9.15;74.02
59825;BME280;45703;50.898;6.054;2023-05-24T00:39:38;100959.47;;;9.10;75.20
59825;BME280;45703;50.898;6.054;2023-05-24T00:42:03;100952.72;;;9.07;74.20
59825;BME280;45703;50.898;6.054;2023-05-24T00:44:29;100965.81;;;9.09;74.70
59825;BME280;45703;50.898;6.054;2023-05-24T00:46:55;100941.13;;;8.94;75.07
59825;BME280;45703;50.898;6.054;2023-05-24T00:49:21;100954.06;;;8.97;75.46
59825;BME280;45703;50.898;6.054;2023-05-24T00:51:48;100959.59;;;8.95;75.54
59825;BME280;45703;50.898;6.054;2023-05-24T00:54:14;100949.88;;;8.88;75.40
59825;BME280;45703;50.898;6.054;2023-05-24T00:56:41;100955.84;;;8.90;76.20
59825;BME280;45703;50.898;6.054;2023-05-24T00:59:07;100954.59;;;8.86;76.45
59825;BME280;45703;50.898;6.054;2023-05-24T01:01:33;100964.16;;;8.80;76.33
59825;BME280;45703;50.898;6.054;2023-05-24T01:03:58;100956.00;;;8.82;75.97
59825;BME280;45703;50.898;6.054;2023-05-24T01:06:24;100953.47;;;8.74;75.73
59825;BME280;45703;50.898;6.054;2023-05-24T01:11:47;100953.66;;;8.72;76.80
59825;BME280;45703;50.898;6.054;2023-05-24T01:17:05;100956.63;;;8.63;76.85
59825;BME280;45703;50.898;6.054;2023-05-24T01:19:48;100960.50;;;8.60;76.60
59825;BME280;45703;50.898;6.054;2023-05-24T01:25:07;100963.31;;;8.53;77.47
59825;BME280;45703;50.898;6.054;2023-05-24T01:27:37;100965.72;;;8.48;77.31
59825;BME280;45703;50.898;6.054;2023-05-24T01:30:03;100962.34;;;8.39;77.47
59825;BME280;45703;50.898;6.054;2023-05-24T01:32:30;100961.25;;;8.34;77.63
59825;BME280;45703;50.898;6.054;2023-05-24T01:34:56;100968.03;;;8.36;77.68
59825;BME280;45703;50.898;6.054;2023-05-24T01:37:21;100956.91;;;8.26;78.31
59825;BME280;45703;50.898;6.054;2023-05-24T01:39:47;100961.00;;;8.29;77.97
59825;BME280;45703;50.898;6.054;2023-05-24T01:45:03;100951.19;;;8.29;77.77
59825;BME280;45703;50.898;6.054;2023-05-24T01:50:24;100949.66;;;8.20;78.05
59825;BME280;45703;50.898;6.054;2023-05-24T01:52:51;100951.69;;;8.18;78.21
59825;BME280;45703;50.898;6.054;2023-05-24T01:55:17;100941.97;;;8.11;78.73
59825;BME280;45703;50.898;6.054;2023-05-24T01:57:44;100955.88;;;8.13;78.65
59825;BME280;45703;50.898;6.054;2023-05-24T02:00:13;100950.09;;;8.09;78.82
59825;BME280;45703;50.898;6.054;2023-05-24T02:02:40;100949.69;;;8.06;78.55
59825;BME280;45703;50.898;6.054;2023-05-24T02:05:06;100944.09;;;8.01;78.86
59825;BME280;45703;50.898;6.054;2023-05-24T02:07:31;100941.81;;;7.98;79.04
59825;BME280;45703;50.898;6.054;2023-05-24T02:09:57;100930.25;;;7.91;78.93
59825;BME280;45703;50.898;6.054;2023-05-24T02:12:22;100944.56;;;7.90;78.88
59825;BME280;45703;50.898;6.054;2023-05-24T02:14:48;100939.63;;;7.87;78.91
59825;BME280;45703;50.898;6.054;2023-05-24T02:17:17;100931.38;;;7.82;79.09
59825;BME280;45703;50.898;6.054;2023-05-24T02:19:43;100936.06;;;7.80;79.43
59825;BME280;45703;50.898;6.054;2023-05-24T02:22:08;100933.78;;;7.77;79.50
59825;BME280;45703;50.898;6.054;2023-05-24T02:24:34;100935.44;;;7.78;79.66
59825;BME280;45703;50.898;6.054;2023-05-24T02:27:01;100940.31;;;7.74;79.62
59825;BME280;45703;50.898;6.054;2023-05-24T02:29:26;100931.22;;;7.69;79.85
59825;BME280;45703;50.898;6.054;2023-05-24T02:31:52;100928.78;;;7.67;79.58
59825;BME280;45703;50.898;6.054;2023-05-24T02:34:21;100923.81;;;7.64;79.96
59825;BME280;45703;50.898;6.054;2023-05-24T02:36:48;100929.31;;;7.63;79.95
59825;BME280;45703;50.898;6.054;2023-05-24T02:39:13;100923.38;;;7.61;80.03
59825;BME280;45703;50.898;6.054;2023-05-24T02:41:39;100926.03;;;7.61;79.97
59825;BME280;45703;50.898;6.054;2023-05-24T02:44:05;100932.34;;;7.60;79.66
59825;BME280;45703;50.898;6.054;2023-05-24T02:46:30;100921.00;;;7.51;80.14
59825;BME280;45703;50.898;6.054;2023-05-24T02:48:56;100929.78;;;7.52;79.94
59825;BME280;45703;50.898;6.054;2023-05-24T02:51:21;100931.97;;;7.48;80.24
59825;BME280;45703;50.898;6.054;2023-05-24T02:53:46;100927.41;;;7.42;80.06
59825;BME280;45703;50.898;6.054;2023-05-24T02:56:12;100923.31;;;7.40;80.29
59825;BME280;45703;50.898;6.054;2023-05-24T02:58:38;100929.97;;;7.36;80.31
59825;BME280;45703;50.898;6.054;2023-05-24T03:01:06;100923.09;;;7.27;80.77
59825;BME280;45703;50.898;6.054;2023-05-24T03:03:31;100928.78;;;7.24;80.64
59825;BME280;45703;50.898;6.054;2023-05-24T03:05:57;100928.16;;;7.22;81.22
59825;BME280;45703;50.898;6.054;2023-05-24T03:08:22;100916.50;;;7.08;81.24
59825;BME280;45703;50.898;6.054;2023-05-24T03:10:48;100915.69;;;7.08;80.87
59825;BME280;45703;50.898;6.054;2023-05-24T03:13:13;100914.41;;;7.04;80.95
59825;BME280;45703;50.898;6.054;2023-05-24T03:15:39;100916.88;;;7.06;80.76
59825;BME280;45703;50.898;6.054;2023-05-24T03:18:04;100928.78;;;7.09;81.36
59825;BME280;45703;50.898;6.054;2023-05-24T03:20:30;100916.59;;;7.01;81.33
59825;BME280;45703;50.898;6.054;2023-05-24T03:22:56;100918.44;;;7.00;81.31
59825;BME280;45703;50.898;6.054;2023-05-24T03:25:21;100919.72;;;7.04;81.41
59825;BME280;45703;50.898;6.054;2023-05-24T03:27:46;100926.84;;;7.04;81.50
59825;BME280;45703;50.898;6.054;2023-05-24T03:30:12;100913.13;;;7.00;81.67
59825;BME280;45703;50.898;6.054;2023-05-24T03:32:37;100918.72;;;7.05;81.46
59825;BME280;45703;50.898;6.054;2023-05-24T03:35:03;100908.47;;;7.02;81.42
59825;BME280;45703;50.898;6.054;2023-05-24T03:37:29;100915.22;;;7.05;81.23
59825;BME280;45703;50.898;6.054;2023-05-24T03:39:54;100909.47;;;7.01;81.43
59825;BME280;45703;50.898;6.054;2023-05-24T03:42:19;100919.72;;;7.04;81.66
59825;BME280;45703;50.898;6.054;2023-05-24T03:44:46;100925.66;;;7.06;81.50
59825;BME280;45703;50.898;6.054;2023-05-24T03:47:11;100915.59;;;7.02;81.42
59825;BME280;45703;50.898;6.054;2023-05-24T03:49:37;100922.09;;;6.99;81.69
59825;BME280;45703;50.898;6.054;2023-05-24T03:52:02;100932.81;;;7.06;81.69
59825;BME280;45703;50.898;6.054;2023-05-24T03:54:28;100921.91;;;7.01;81.93
59825;BME280;45703;50.898;6.054;2023-05-24T03:56:53;100934.66;;;7.05;81.76
59825;BME280;45703;50.898;6.054;2023-05-24T03:59:19;100926.78;;;6.97;81.87
59825;BME280;45703;50.898;6.054;2023-05-24T04:01:44;100935.38;;;6.99;82.16
59825;BME280;45703;50.898;6.054;2023-05-24T04:04:09;100937.09;;;6.92;82.00
59825;BME280;45703;50.898;6.054;2023-05-24T04:06:35;100940.94;;;6.90;82.09
59825;BME280;45703;50.898;6.054;2023-05-24T04:09:02;100935.78;;;6.88;82.07
59825;BME280;45703;50.898;6.054;2023-05-24T04:11:29;100947.72;;;6.92;82.06
59825;BME280;45703;50.898;6.054;2023-05-24T04:13:57;100938.28;;;6.90;82.00
59825;BME280;45703;50.898;6.054;2023-05-24T04:16:25;100947.25;;;6.89;82.42
59825;BME280;45703;50.898;6.054;2023-05-24T04:18:51;100937.00;;;6.86;82.30
59825;BME280;45703;50.898;6.054;2023-05-24T04:21:17;100952.03;;;6.93;82.50
59825;BME280;45703;50.898;6.054;2023-05-24T04:23:42;100962.91;;;6.98;83.20
59825;BME280;45703;50.898;6.054;2023-05-24T04:26:08;100952.66;;;6.95;83.21
59825;BME280;45703;50.898;6.054;2023-05-24T04:28:35;100960.53;;;7.03;83.18
59825;BME280;45703;50.898;6.054;2023-05-24T04:31:04;100962.47;;;7.09;83.43
59825;BME280;45703;50.898;6.054;2023-05-24T04:33:31;100964.22;;;7.16;82.85
59825;BME280;45703;50.898;6.054;2023-05-24T04:35:56;100963.50;;;7.22;81.87
59825;BME280;45703;50.898;6.054;2023-05-24T04:38:25;100950.50;;;7.27;83.90
59825;BME280;45703;50.898;6.054;2023-05-24T04:40:54;100953.31;;;7.26;82.47
59825;BME280;45703;50.898;6.054;2023-05-24T04:43:20;100948.13;;;7.32;82.08
59825;BME280;45703;50.898;6.054;2023-05-24T04:45:46;100962.03;;;7.49;82.01
59825;BME280;45703;50.898;6.054;2023-05-24T04:48:11;100962.31;;;7.54;82.69
59825;BME280;45703;50.898;6.054;2023-05-24T04:50:37;100976.50;;;7.61;82.85
59825;BME280;45703;50.898;6.054;2023-05-24T04:53:02;100978.16;;;7.62;82.20
59825;BME280;45703;50.898;6.054;2023-05-24T04:55:28;100974.59;;;7.69;83.42
59825;BME280;45703;50.898;6.054;2023-05-24T04:57:54;100977.94;;;7.78;85.10
59825;BME280;45703;50.898;6.054;2023-05-24T05:00:19;100973.75;;;7.83;87.80
59825;BME280;45703;50.898;6.054;2023-05-24T05:02:45;100966.16;;;7.80;86.13
59825;BME280;45703;50.898;6.054;2023-05-24T05:05:10;100970.72;;;7.86;83.52
59825;BME280;45703;50.898;6.054;2023-05-24T05:07:36;100980.50;;;8.00;83.42
59825;BME280;45703;50.898;6.054;2023-05-24T05:10:03;100969.69;;;8.02;83.77
59825;BME280;45703;50.898;6.054;2023-05-24T05:12:28;100967.72;;;8.10;83.18
59825;BME280;45703;50.898;6.054;2023-05-24T05:14:54;100977.34;;;8.26;84.04
59825;BME280;45703;50.898;6.054;2023-05-24T05:17:19;100979.44;;;8.30;83.48
59825;BME280;45703;50.898;6.054;2023-05-24T05:19:45;100962.22;;;8.26;84.92
59825;BME280;45703;50.898;6.054;2023-05-24T05:22:11;100976.28;;;8.41;82.65
59825;BME280;45703;50.898;6.054;2023-05-24T05:24:36;100987.88;;;8.55;83.18
59825;BME280;45703;50.898;6.054;2023-05-24T05:27:02;100987.13;;;8.60;82.18
59825;BME280;45703;50.898;6.054;2023-05-24T05:29:27;100986.34;;;8.66;82.45
59825;BME280;45703;50.898;6.054;2023-05-24T05:31:52;100982.28;;;8.70;83.78
59825;BME280;45703;50.898;6.054;2023-05-24T05:34:18;100985.84;;;8.77;82.19
59825;BME280;45703;50.898;6.054;2023-05-24T05:36:45;100977.91;;;8.84;82.31
59825;BME280;45703;50.898;6.054;2023-05-24T05:39:10;100981.25;;;8.92;81.87
59825;BME280;45703;50.898;6.054;2023-05-24T05:41:38;100974.28;;;8.91;81.50
59825;BME280;45703;50.898;6.054;2023-05-24T05:44:04;100988.34;;;9.06;81.28
59825;BME280;45703;50.898;6.054;2023-05-24T05:46:29;100990.88;;;9.14;81.91
59825;BME280;45703;50.898;6.054;2023-05-24T05:48:55;100985.97;;;9.18;80.86
59825;BME280;45703;50.898;6.054;2023-05-24T05:51:20;100984.38;;;9.23;81.21
59825;BME280;45703;50.898;6.054;2023-05-24T05:53:45;100984.03;;;9.33;80.91
59825;BME280;45703;50.898;6.054;2023-05-24T05:56:13;100979.13;;;9.36;81.31
59825;BME280;45703;50.898;6.054;2023-05-24T05:58:39;100983.47;;;9.44;80.81
59825;BME280;45703;50.898;6.054;2023-05-24T06:01:04;100980.66;;;9.52;81.08
59825;BME280;45703;50.898;6.054;2023-05-24T06:03:29;100975.78;;;9.55;81.39
59825;BME280;45703;50.898;6.054;2023-05-24T06:05:55;100982.97;;;9.61;81.20
59825;BME280;45703;50.898;6.054;2023-05-24T06:08:20;100979.28;;;9.62;80.69
59825;BME280;45703;50.898;6.054;2023-05-24T06:10:46;100968.19;;;9.59;80.78
59825;BME280;45703;50.898;6.054;2023-05-24T06:13:12;100980.16;;;9.69;80.53
59825;BME280;45703;50.898;6.054;2023-05-24T06:15:37;100987.34;;;9.75;80.15
59825;BME280;45703;50.898;6.054;2023-05-24T06:18:03;100990.25;;;9.80;81.36
59825;BME280;45703;50.898;6.054;2023-05-24T06:20:31;100985.13;;;9.85;80.62
59825;BME280;45703;50.898;6.054;2023-05-24T06:22:57;100987.41;;;9.88;82.09
59825;BME280;45703;50.898;6.054;2023-05-24T06:25:24;100989.09;;;9.96;80.47
59825;BME280;45703;50.898;6.054;2023-05-24T06:27:51;100988.94;;;10.03;79.11
59825;BME280;45703;50.898;6.054;2023-05-24T06:30:17;100997.63;;;10.12;80.29
59825;BME280;45703;50.898;6.054;2023-05-24T06:32:42;101006.69;;;10.24;79.62
59825;BME280;45703;50.898;6.054;2023-05-24T06:35:08;101012.84;;;10.31;79.50
59825;BME280;45703;50.898;6.054;2023-05-24T06:37:34;101010.63;;;10.41;78.78
59825;BME280;45703;50.898;6.054;2023-05-24T06:40:00;101000.81;;;10.48;78.67
59825;BME280;45703;50.898;6.054;2023-05-24T06:42:25;101007.16;;;10.53;78.94
59825;BME280;45703;50.898;6.054;2023-05-24T06:44:51;101005.75;;;10.64;79.55
59825;BME280;45703;50.898;6.054;2023-05-24T06:47:16;100997.97;;;10.69;78.19
59825;BME280;45703;50.898;6.054;2023-05-24T06:49:41;101001.88;;;10.79;78.31
59825;BME280;45703;50.898;6.054;2023-05-24T06:52:07;100994.09;;;10.84;77.81
59825;BME280;45703;50.898;6.054;2023-05-24T06:54:33;101008.66;;;10.95;77.57
59825;BME280;45703;50.898;6.054;2023-05-24T06:56:58;101005.19;;;11.01;77.55
59825;BME280;45703;50.898;6.054;2023-05-24T06:59:24;101008.06;;;11.06;76.95
59825;BME280;45703;50.898;6.054;2023-05-24T07:01:49;100998.63;;;11.10;76.73
59825;BME280;45703;50.898;6.054;2023-05-24T07:04:23;100989.56;;;11.11;76.47
59825;BME280;45703;50.898;6.054;2023-05-24T07:06:49;100998.59;;;11.16;76.19
59825;BME280;45703;50.898;6.054;2023-05-24T07:09:16;100990.38;;;11.11;76.43
59825;BME280;45703;50.898;6.054;2023-05-24T07:11:42;101004.78;;;11.17;76.03
59825;BME280;45703;50.898;6.054;2023-05-24T07:14:07;101010.53;;;11.14;76.08
59825;BME280;45703;50.898;6.054;2023-05-24T07:16:32;101005.19;;;11.14;76.30
59825;BME280;45703;50.898;6.054;2023-05-24T07:18:58;101019.97;;;11.23;76.81
59825;BME280;45703;50.898;6.054;2023-05-24T07:21:23;101020.78;;;11.30;76.72
59825;BME280;45703;50.898;6.054;2023-05-24T07:23:50;101018.31;;;11.35;76.65
59825;BME280;45703;50.898;6.054;2023-05-24T07:26:15;101037.00;;;11.47;76.04
59825;BME280;45703;50.898;6.054;2023-05-24T07:28:41;101036.84;;;11.55;76.05
59825;BME280;45703;50.898;6.054;2023-05-24T07:31:08;101034.38;;;11.60;75.52
59825;BME280;45703;50.898;6.054;2023-05-24T07:33:35;101036.41;;;11.71;74.82
59825;BME280;45703;50.898;6.054;2023-05-24T07:36:02;101034.34;;;11.67;74.59
59825;BME280;45703;50.898;6.054;2023-05-24T07:38:28;101040.13;;;11.77;74.26
59825;BME280;45703;50.898;6.054;2023-05-24T07:40:54;101039.50;;;11.75;73.72
59825;BME280;45703;50.898;6.054;2023-05-24T07:43:20;101044.63;;;11.76;74.33
59825;BME280;45703;50.898;6.054;2023-05-24T07:45:45;101035.97;;;11.81;74.07
59825;BME280;45703;50.898;6.054;2023-05-24T07:48:11;101034.72;;;11.83;73.82
59825;BME280;45703;50.898;6.054;2023-05-24T07:50:36;101034.31;;;11.86;73.80
59825;BME280;45703;50.898;6.054;2023-05-24T07:53:02;101038.00;;;11.92;74.12
59825;BME280;45703;50.898;6.054;2023-05-24T07:55:29;101027.69;;;11.95;74.15
59825;BME280;45703;50.898;6.054;2023-05-24T07:57:54;101029.69;;;12.13;74.83
59825;BME280;45703;50.898;6.054;2023-05-24T08:00:20;101013.78;;;12.24;74.24
59825;BME280;45703;50.898;6.054;2023-05-24T08:02:47;101016.44;;;12.31;74.07
59825;BME280;45703;50.898;6.054;2023-05-24T08:05:13;101009.97;;;12.45;74.16
59825;BME280;45703;50.898;6.054;2023-05-24T08:07:39;101006.84;;;12.54;73.34
59825;BME280;45703;50.898;6.054;2023-05-24T08:10:06;101017.47;;;12.67;73.40
59825;BME280;45703;50.898;6.054;2023-05-24T08:12:32;101012.13;;;12.67;71.80
59825;BME280;45703;50.898;6.054;2023-05-24T08:14:57;101028.56;;;12.71;71.59
59825;BME280;45703;50.898;6.054;2023-05-24T08:17:23;101031.03;;;12.72;71.72
59825;BME280;45703;50.898;6.054;2023-05-24T08:19:49;101018.88;;;12.70;72.10
59825;BME280;45703;50.898;6.054;2023-05-24T08:22:14;101017.38;;;12.80;72.20
59825;BME280;45703;50.898;6.054;2023-05-24T08:24:40;101019.03;;;12.81;72.24
59825;BME280;45703;50.898;6.054;2023-05-24T08:27:05;101014.06;;;12.85;72.50
59825;BME280;45703;50.898;6.054;2023-05-24T08:29:32;101015.72;;;12.86;71.37
59825;BME280;45703;50.898;6.054;2023-05-24T08:31:57;101012.34;;;12.97;71.75
59825;BME280;45703;50.898;6.054;2023-05-24T08:34:23;101025.09;;;13.01;71.96
59825;BME280;45703;50.898;6.054;2023-05-24T08:36:48;101014.44;;;12.95;72.07
59825;BME280;45703;50.898;6.054;2023-05-24T08:39:14;101026.34;;;12.98;71.24
59825;BME280;45703;50.898;6.054;2023-05-24T08:41:40;101022.22;;;12.96;70.70
59825;BME280;45703;50.898;6.054;2023-05-24T08:44:05;101010.31;;;12.92;71.04
59825;BME280;45703;50.898;6.054;2023-05-24T08:46:34;101022.22;;;12.96;71.70
59825;BME280;45703;50.898;6.054;2023-05-24T08:52:03;101008.16;;;13.07;71.38
59825;BME280;45703;50.898;6.054;2023-05-24T08:54:33;101006.59;;;13.17;71.29
59825;BME280;45703;50.898;6.054;2023-05-24T08:56:59;101014.13;;;13.33;71.57
59825;BME280;45703;50.898;6.054;2023-05-24T08:59:25;101013.16;;;13.46;71.71
59825;BME280;45703;50.898;6.054;2023-05-24T09:01:52;100997.16;;;13.57;70.04
59825;BME280;45703;50.898;6.054;2023-05-24T09:04:20;100992.91;;;13.68;70.56
59825;BME280;45703;50.898;6.054;2023-05-24T09:06:45;100997.16;;;13.75;67.90
59825;BME280;45703;50.898;6.054;2023-05-24T09:09:14;101005.00;;;13.77;66.37
59825;BME280;45703;50.898;6.054;2023-05-24T09:11:44;100996.75;;;13.78;67.93
59825;BME280;45703;50.898;6.054;2023-05-24T09:14:12;100992.47;;;13.89;67.29
59825;BME280;45703;50.898;6.054;2023-05-24T09:16:38;100990.31;;;13.97;67.43
59825;BME280;45703;50.898;6.054;2023-05-24T09:19:03;100998.88;;;14.06;66.63
59825;BME280;45703;50.898;6.054;2023-05-24T09:21:29;100990.13;;;14.10;66.76
59825;BME280;45703;50.898;6.054;2023-05-24T09:23:54;100983.50;;;14.13;66.68
59825;BME280;45703;50.898;6.054;2023-05-24T09:26:20;100999.09;;;14.22;64.80
59825;BME280;45703;50.898;6.054;2023-05-24T09:28:46;100998.28;;;14.22;63.27
59825;BME280;45703;50.898;6.054;2023-05-24T09:31:12;100994.09;;;14.26;65.99
59825;BME280;45703;50.898;6.054;2023-05-24T09:33:38;100986.66;;;14.28;65.81
59825;BME280;45703;50.898;6.054;2023-05-24T09:36:04;100999.09;;;14.40;65.79
59825;BME280;45703;50.898;6.054;2023-05-24T09:38:31;100969.53;;;14.40;63.83
59825;BME280;45703;50.898;6.054;2023-05-24T09:41:06;100974.94;;;14.51;65.96
59825;BME280;45703;50.898;6.054;2023-05-24T09:43:33;100976.72;;;14.57;65.55
59825;BME280;45703;50.898;6.054;2023-05-24T09:46:03;100989.38;;;14.68;63.91
59825;BME280;45703;50.898;6.054;2023-05-24T09:48:31;100972.06;;;14.64;62.83
59825;BME280;45703;50.898;6.054;2023-05-24T09:51:04;100966.22;;;14.67;63.73
59825;BME280;45703;50.898;6.054;2023-05-24T09:53:31;100966.69;;;14.76;64.31
59825;BME280;45703;50.898;6.054;2023-05-24T09:55:58;100977.94;;;14.84;62.31
59825;BME280;45703;50.898;6.054;2023-05-24T09:58:35;100957.97;;;14.92;63.21
59825;BME280;45703;50.898;6.054;2023-05-24T10:01:05;100957.38;;;15.01;64.16
59825;BME280;45703;50.898;6.054;2023-05-24T10:03:31;100963.16;;;15.16;62.25
59825;BME280;45703;50.898;6.054;2023-05-24T10:05:57;100959.16;;;15.19;63.79
59825;BME280;45703;50.898;6.054;2023-05-24T10:08:26;100963.53;;;15.31;62.97
59825;BME280;45703;50.898;6.054;2023-05-24T10:10:54;100957.78;;;15.28;61.52
59825;BME280;45703;50.898;6.054;2023-05-24T10:13:21;100959.41;;;15.17;59.74
59825;BME280;45703;50.898;6.054;2023-05-24T10:15:49;100957.16;;;15.03;62.04
59825;BME280;45703;50.898;6.054;2023-05-24T10:18:15;100948.41;;;14.96;62.29
59825;BME280;45703;50.898;6.054;2023-05-24T10:20:41;100945.34;;;14.92;62.76
59825;BME280;45703;50.898;6.054;2023-05-24T10:23:14;100940.56;;;14.94;62.80
59825;BME280;45703;50.898;6.054;2023-05-24T10:25:51;100942.66;;;14.92;63.76
59825;BME280;45703;50.898;6.054;2023-05-24T10:28:21;100963.69;;;14.95;61.65
59825;BME280;45703;50.898;6.054;2023-05-24T10:33:17;100950.72;;;14.81;61.01
59825;BME280;45703;50.898;6.054;2023-05-24T10:35:45;100953.19;;;14.94;63.85
59825;BME280;45703;50.898;6.054;2023-05-24T10:38:10;100953.53;;;14.97;62.10
59825;BME280;45703;50.898;6.054;2023-05-24T10:40:40;100954.38;;;15.09;63.50
59825;BME280;45703;50.898;6.054;2023-05-24T10:43:07;100958.09;;;15.20;61.25
59825;BME280;45703;50.898;6.054;2023-05-24T10:45:36;100957.09;;;15.32;63.36
59825;BME280;45703;50.898;6.054;2023-05-24T10:50:42;100962.13;;;15.52;61.26
59825;BME280;45703;50.898;6.054;2023-05-24T10:53:21;100956.00;;;15.56;62.44
59825;BME280;45703;50.898;6.054;2023-05-24T10:58:22;100955.69;;;15.53;62.19
59825;BME280;45703;50.898;6.054;2023-05-24T11:00:50;100962.22;;;15.57;63.00
59825;BME280;45703;50.898;6.054;2023-05-24T11:03:17;100946.19;;;15.50;62.36
59825;BME280;45703;50.898;6.054;2023-05-24T11:08:32;100952.50;;;15.67;60.12
59825;BME280;45703;50.898;6.054;2023-05-24T11:11:15;100937.50;;;15.71;61.75
59825;BME280;45703;50.898;6.054;2023-05-24T11:13:41;100953.53;;;15.78;59.86
59825;BME280;45703;50.898;6.054;2023-05-24T11:16:07;100945.22;;;15.68;59.22
59825;BME280;45703;50.898;6.054;2023-05-24T11:18:33;100951.81;;;15.60;59.70
59825;BME280;45703;50.898;6.054;2023-05-24T11:21:04;100950.78;;;15.50;59.03
59825;BME280;45703;50.898;6.054;2023-05-24T11:23:31;100949.03;;;15.32;60.21
59825;BME280;45703;50.898;6.054;2023-05-24T11:25:56;100947.81;;;15.17;61.04
59825;BME280;45703;50.898;6.054;2023-05-24T11:28:22;100951.09;;;15.07;60.91
59825;BME280;45703;50.898;6.054;2023-05-24T11:30:48;100941.13;;;14.96;61.88
59825;BME280;45703;50.898;6.054;2023-05-24T11:33:19;100940.69;;;14.88;62.73
59825;BME280;45703;50.898;6.054;2023-05-24T11:35:47;100938.56;;;14.90;63.34
59825;BME280;45703;50.898;6.054;2023-05-24T11:38:15;100930.50;;;14.90;63.17
59825;BME280;45703;50.898;6.054;2023-05-24T11:40:46;100938.56;;;15.01;63.96
59825;BME280;45703;50.898;6.054;2023-05-24T11:43:21;100931.69;;;15.05;64.25
59825;BME280;45703;50.898;6.054;2023-05-24T11:45:50;100934.94;;;15.19;64.25
59825;BME280;45703;50.898;6.054;2023-05-24T11:48:17;100941.44;;;15.29;63.43
59825;BME280;45703;50.898;6.054;2023-05-24T11:50:44;100932.88;;;15.32;64.11
59825;BME280;45703;50.898;6.054;2023-05-24T11:53:12;100927.88;;;15.36;63.92
59825;BME280;45703;50.898;6.054;2023-05-24T11:55:41;100934.75;;;15.43;63.56
59825;BME280;45703;50.898;6.054;2023-05-24T11:58:24;100932.53;;;15.40;63.79
59825;BME280;45703;50.898;6.054;2023-05-24T12:00:50;100942.69;;;15.38;62.56
59825;BME280;45703;50.898;6.054;2023-05-24T12:03:17;100941.91;;;15.38;63.65
59825;BME280;45703;50.898;6.054;2023-05-24T12:05:43;100927.97;;;15.29;63.32
59825;BME280;45703;50.898;6.054;2023-05-24T12:08:10;100926.34;;;15.28;63.94
59825;BME280;45703;50.898;6.054;2023-05-24T12:10:42;100938.97;;;15.39;64.59
59825;BME280;45703;50.898;6.054;2023-05-24T12:13:22;100940.69;;;15.45;64.95
59825;BME280;45703;50.898;6.054;2023-05-24T12:15:54;100936.00;;;15.52;64.44
59825;BME280;45703;50.898;6.054;2023-05-24T12:18:21;100939.75;;;15.63;64.21
59825;BME280;45703;50.898;6.054;2023-05-24T12:20:48;100930.97;;;15.67;63.85
59825;BME280;45703;50.898;6.054;2023-05-24T12:23:14;100929.19;;;15.73;63.33
59825;BME280;45703;50.898;6.054;2023-05-24T12:25:41;100930.50;;;15.70;62.68
59825;BME280;45703;50.898;6.054;2023-05-24T12:28:06;100932.59;;;15.68;62.29
59825;BME280;45703;50.898;6.054;2023-05-24T12:30:32;100925.59;;;15.67;63.62
59825;BME280;45703;50.898;6.054;2023-05-24T12:32:57;100935.88;;;15.70;62.82
59825;BME280;45703;50.898;6.054;2023-05-24T12:35:23;100925.59;;;15.67;63.21
59825;BME280;45703;50.898;6.054;2023-05-24T12:37:49;100931.31;;;15.71;63.37
59825;BME280;45703;50.898;6.054;2023-05-24T12:40:16;100933.19;;;15.70;63.94
59825;BME280;45703;50.898;6.054;2023-05-24T12:42:45;100930.50;;;15.70;61.61
59825;BME280;45703;50.898;6.054;2023-05-24T12:45:13;100923.00;;;15.61;63.43
59825;BME280;45703;50.898;6.054;2023-05-24T12:47:41;100931.09;;;15.61;62.72
59825;BME280;45703;50.898;6.054;2023-05-24T12:50:07;100931.94;;;15.61;63.72
59825;BME280;45703;50.898;6.054;2023-05-24T12:52:32;100943.16;;;15.58;61.80
59825;BME280;45703;50.898;6.054;2023-05-24T12:55:00;100931.69;;;15.51;62.83
59825;BME280;45703;50.898;6.054;2023-05-24T12:57:25;100924.66;;;15.50;61.92
59825;BME280;45703;50.898;6.054;2023-05-24T12:59:51;100924.53;;;15.57;62.74
59825;BME280;45703;50.898;6.054;2023-05-24T13:02:16;100923.72;;;15.56;61.23
59825;BME280;45703;50.898;6.054;2023-05-24T13:04:42;100917.88;;;15.59;60.99
59825;BME280;45703;50.898;6.054;2023-05-24T13:07:07;100922.91;;;15.67;60.83
59825;BME280;45703;50.898;6.054;2023-05-24T13:09:33;100923.00;;;15.72;63.31
59825;BME280;45703;50.898;6.054;2023-05-24T13:11:59;100919.94;;;15.80;61.47
59825;BME280;45703;50.898;6.054;2023-05-24T13:14:25;100929.88;;;15.80;60.76
59825;BME280;45703;50.898;6.054;2023-05-24T13:16:51;100923.56;;;15.86;62.13
59825;BME280;45703;50.898;6.054;2023-05-24T13:19:17;100915.41;;;15.97;62.07